Helliar — 2EPP5 — position and weather

sailwx.info

Track history (hours):
 
Tides and Currents Weather Stations Pressure Air Temp Water Temp Dewpoint Dewpoint Depression Visibility Wind Speed Wind Dir Waves Ship Positions

Helliar

Last reported at 2016-Apr-28 18:33 UTC. Time now 2016-Apr-29 23:34 UTC.
Position N 57°31' W 001°42'.

Length 122 m; draft 5.3 m.

Type: Cargo ship. MMSI: 235087119.

Date/timePositionNaut miles runAvg speedWind from/ knotsBaromVisibWave heightAir tempDewpointWater temp
2016-Apr-28 18:33N 57°31' W 001°42'2512.7
2016-Apr-28 16:33N 57°09' W 002°04'1 0.6
2016-Apr-28 15:32N 57°09' W 002°05'0 0.0
2016-Apr-28 14:29N 57°09' W 002°05'23 2.4
2016-Apr-28 04:33N 57°28' W 001°40'1413.8
2016-Apr-28 03:34N 57°42' W 001°40'5 0.2
2016-Apr-26 19:18N 57°37' W 001°40'912.6
2016-Apr-26 18:34N 57°27' W 001°43'2 0.1
2016-Apr-26 04:33N 57°27' W 001°40'  
2016-Apr-21 18:34N 57°35' W 001°38'2914.3
2016-Apr-21 16:30N 57°09' W 002°03'1 1.0
2016-Apr-21 15:13N 57°09' W 002°05'0 0.0
2016-Apr-21 13:25N 57°09' W 002°05'0 0.0
2016-Apr-21 11:28N 57°09' W 002°05'0 0.0
2016-Apr-21 09:28N 57°09' W 002°05'0 0.0
2016-Apr-21 07:10N 57°09' W 002°05'1 1.2
2016-Apr-21 06:34N 57°09' W 002°04'2110.3
2016-Apr-21 04:33N 57°26' W 001°42'1111.5
2016-Apr-21 03:34N 57°37' W 001°40'11 0.4
2016-Apr-19 19:33N 57°48' W 001°40'1414.0
2016-Apr-19 18:34N 57°34' W 001°41'2914.2
2016-Apr-19 16:33N 57°08' W 002°04'1 0.5
2016-Apr-19 15:26N 57°09' W 002°05'0 0.0
2016-Apr-19 14:32N 57°09' W 002°05'0 0.0
2016-Apr-19 13:29N 57°09' W 002°05'0 0.0
2016-Apr-19 12:29N 57°09' W 002°05'0 0.0
2016-Apr-19 11:29N 57°09' W 002°05'0 0.0
2016-Apr-19 10:32N 57°09' W 002°05'0 0.0
2016-Apr-19 09:32N 57°09' W 002°05'0 0.0
2016-Apr-19 08:32N 57°09' W 002°05'0 0.0
2016-Apr-19 07:32N 57°09' W 002°05'0 0.0
2016-Apr-19 06:32N 57°09' W 002°05'0 0.0
2016-Apr-19 05:32N 57°09' W 002°05'0 0.4
2016-Apr-19 04:33N 57°09' W 002°05'2110.7
2016-Apr-19 02:33N 57°27' W 001°44'1211.6
2016-Apr-19 01:33N 57°38' W 001°46'1311.9
2016-Apr-19 00:30N 57°51' W 001°53'6214.0
2016-Apr-18 20:03N 58°49' W 002°32'815.5
2016-Apr-18 19:31N 58°57' W 002°38'  
Track history (hours):
 
Tides and Currents Weather Stations Pressure Air Temp Water Temp Dewpoint Dewpoint Depression Visibility Wind Speed Wind Dir Waves Ship Positions

Helliar

Last reported at 2016-Apr-28 18:33 UTC. Time now 2016-Apr-29 23:34 UTC.
Position N 57°31' W 001°42'.

Length 122 m; draft 5.3 m.

Type: Cargo ship. MMSI: 235087119.

Date/timePositionNaut miles runAvg speedWind from/ knotsBaromVisibWave heightAir tempDewpointWater temp
2016-Apr-28 18:33N 57°31' W 001°42'2512.7
2016-Apr-28 16:33N 57°09' W 002°04'1 0.6
2016-Apr-28 15:32N 57°09' W 002°05'0 0.0
2016-Apr-28 14:29N 57°09' W 002°05'23 2.4
2016-Apr-28 04:33N 57°28' W 001°40'1413.8
2016-Apr-28 03:34N 57°42' W 001°40'5 0.2
2016-Apr-26 19:18N 57°37' W 001°40'912.6
2016-Apr-26 18:34N 57°27' W 001°43'2 0.1
2016-Apr-26 04:33N 57°27' W 001°40'  
2016-Apr-21 18:34N 57°35' W 001°38'2914.3
2016-Apr-21 16:30N 57°09' W 002°03'1 1.0
2016-Apr-21 15:13N 57°09' W 002°05'0 0.0
2016-Apr-21 13:25N 57°09' W 002°05'0 0.0
2016-Apr-21 11:28N 57°09' W 002°05'0 0.0
2016-Apr-21 09:28N 57°09' W 002°05'0 0.0
2016-Apr-21 07:10N 57°09' W 002°05'1 1.2
2016-Apr-21 06:34N 57°09' W 002°04'2110.3
2016-Apr-21 04:33N 57°26' W 001°42'1111.5
2016-Apr-21 03:34N 57°37' W 001°40'11 0.4
2016-Apr-19 19:33N 57°48' W 001°40'1414.0
2016-Apr-19 18:34N 57°34' W 001°41'2914.2
2016-Apr-19 16:33N 57°08' W 002°04'1 0.5
2016-Apr-19 15:26N 57°09' W 002°05'0 0.0
2016-Apr-19 14:32N 57°09' W 002°05'0 0.0
2016-Apr-19 13:29N 57°09' W 002°05'0 0.0
2016-Apr-19 12:29N 57°09' W 002°05'0 0.0
2016-Apr-19 11:29N 57°09' W 002°05'0 0.0
2016-Apr-19 10:32N 57°09' W 002°05'0 0.0
2016-Apr-19 09:32N 57°09' W 002°05'0 0.0
2016-Apr-19 08:32N 57°09' W 002°05'0 0.0
2016-Apr-19 07:32N 57°09' W 002°05'0 0.0
2016-Apr-19 06:32N 57°09' W 002°05'0 0.0
2016-Apr-19 05:32N 57°09' W 002°05'0 0.4
2016-Apr-19 04:33N 57°09' W 002°05'2110.7
2016-Apr-19 02:33N 57°27' W 001°44'1211.6
2016-Apr-19 01:33N 57°38' W 001°46'1311.9
2016-Apr-19 00:30N 57°51' W 001°53'6214.0
2016-Apr-18 20:03N 58°49' W 002°32'815.5
2016-Apr-18 19:31N 58°57' W 002°38'  

Dump ship's entire track history